sensor_id;sensor_type;location;lat;lon;timestamp;temperature;humidity
8527;DHT22;4301;48.362;8.478;2023-04-15T00:00:36;0.10;99.90
8527;DHT22;4301;48.362;8.478;2023-04-15T00:03:04;0.10;99.90
8527;DHT22;4301;48.362;8.478;2023-04-15T00:05:34;0.00;99.90
8527;DHT22;4301;48.362;8.478;2023-04-15T00:08:01;0.10;99.90
8527;DHT22;4301;48.362;8.478;2023-04-15T00:10:27;0.00;99.90
8527;DHT22;4301;48.362;8.478;2023-04-15T00:12:54;0.00;99.90
8527;DHT22;4301;48.362;8.478;2023-04-15T00:15:22;-0.10;99.90
8527;DHT22;4301;48.362;8.478;2023-04-15T00:17:49;-0.20;99.90
8527;DHT22;4301;48.362;8.478;2023-04-15T00:20:17;-0.20;99.90
8527;DHT22;4301;48.362;8.478;2023-04-15T00:22:45;-0.20;99.90
8527;DHT22;4301;48.362;8.478;2023-04-15T00:25:12;-0.30;99.90
8527;DHT22;4301;48.362;8.478;2023-04-15T00:27:39;-0.40;99.90
8527;DHT22;4301;48.362;8.478;2023-04-15T00:30:07;-0.40;99.90
8527;DHT22;4301;48.362;8.478;2023-04-15T00:32:34;-0.40;99.90
8527;DHT22;4301;48.362;8.478;2023-04-15T00:35:01;-0.40;99.90
8527;DHT22;4301;48.362;8.478;2023-04-15T00:37:29;-0.50;99.90
8527;DHT22;4301;48.362;8.478;2023-04-15T00:39:57;-0.50;99.90
8527;DHT22;4301;48.362;8.478;2023-04-15T00:42:24;-0.50;99.90
8527;DHT22;4301;48.362;8.478;2023-04-15T00:44:51;-0.40;99.90
8527;DHT22;4301;48.362;8.478;2023-04-15T00:47:19;-0.40;99.90
8527;DHT22;4301;48.362;8.478;2023-04-15T00:49:46;-0.40;99.90
8527;DHT22;4301;48.362;8.478;2023-04-15T00:52:13;-0.40;99.90
8527;DHT22;4301;48.362;8.478;2023-04-15T00:54:40;-0.50;99.90
8527;DHT22;4301;48.362;8.478;2023-04-15T00:57:09;-0.50;99.90
8527;DHT22;4301;48.362;8.478;2023-04-15T00:59:36;-0.60;99.90
8527;DHT22;4301;48.362;8.478;2023-04-15T01:02:03;-0.60;99.90
8527;DHT22;4301;48.362;8.478;2023-04-15T01:04:30;-0.60;99.90
8527;DHT22;4301;48.362;8.478;2023-04-15T01:06:58;-0.50;99.90
8527;DHT22;4301;48.362;8.478;2023-04-15T01:09:25;-0.70;99.90
8527;DHT22;4301;48.362;8.478;2023-04-15T01:11:52;-0.70;99.90
8527;DHT22;4301;48.362;8.478;2023-04-15T01:14:20;-0.60;99.90
8527;DHT22;4301;48.362;8.478;2023-04-15T01:16:47;-0.60;99.90
8527;DHT22;4301;48.362;8.478;2023-04-15T01:19:15;-0.70;99.90
8527;DHT22;4301;48.362;8.478;2023-04-15T01:21:43;-0.70;99.90
8527;DHT22;4301;48.362;8.478;2023-04-15T01:24:10;-0.70;99.90
8527;DHT22;4301;48.362;8.478;2023-04-15T01:26:40;-0.80;99.90
8527;DHT22;4301;48.362;8.478;2023-04-15T01:29:07;-0.80;99.90
8527;DHT22;4301;48.362;8.478;2023-04-15T01:31:34;-0.80;99.90
8527;DHT22;4301;48.362;8.478;2023-04-15T01:34:02;-0.80;99.90
8527;DHT22;4301;48.362;8.478;2023-04-15T01:36:29;-0.80;99.90
8527;DHT22;4301;48.362;8.478;2023-04-15T01:38:56;-0.80;99.90
8527;DHT22;4301;48.362;8.478;2023-04-15T01:41:25;-0.80;99.90
8527;DHT22;4301;48.362;8.478;2023-04-15T01:43:54;-0.80;99.90
8527;DHT22;4301;48.362;8.478;2023-04-15T01:46:21;-0.80;99.90
8527;DHT22;4301;48.362;8.478;2023-04-15T01:48:48;-0.80;99.90
8527;DHT22;4301;48.362;8.478;2023-04-15T01:51:15;-0.80;99.90
8527;DHT22;4301;48.362;8.478;2023-04-15T01:53:42;-0.80;99.90
8527;DHT22;4301;48.362;8.478;2023-04-15T01:56:09;-0.80;99.90
8527;DHT22;4301;48.362;8.478;2023-04-15T01:58:36;-0.90;99.90
8527;DHT22;4301;48.362;8.478;2023-04-15T02:01:06;-0.90;99.90
8527;DHT22;4301;48.362;8.478;2023-04-15T02:03:35;-1.10;99.90
8527;DHT22;4301;48.362;8.478;2023-04-15T02:06:03;-1.10;99.90
8527;DHT22;4301;48.362;8.478;2023-04-15T02:08:30;-1.10;99.90
8527;DHT22;4301;48.362;8.478;2023-04-15T02:10:57;-1.10;99.90
8527;DHT22;4301;48.362;8.478;2023-04-15T02:13:25;-1.10;99.90
8527;DHT22;4301;48.362;8.478;2023-04-15T02:15:54;-1.10;99.90
8527;DHT22;4301;48.362;8.478;2023-04-15T02:18:22;-1.20;99.90
8527;DHT22;4301;48.362;8.478;2023-04-15T02:20:51;-1.10;99.90
8527;DHT22;4301;48.362;8.478;2023-04-15T02:23:17;-1.00;99.90
8527;DHT22;4301;48.362;8.478;2023-04-15T02:25:45;-1.00;99.90
8527;DHT22;4301;48.362;8.478;2023-04-15T02:28:12;-1.10;99.90
8527;DHT22;4301;48.362;8.478;2023-04-15T02:30:38;-1.10;99.90
8527;DHT22;4301;48.362;8.478;2023-04-15T02:33:06;-1.10;99.90
8527;DHT22;4301;48.362;8.478;2023-04-15T02:35:35;-1.10;99.90
8527;DHT22;4301;48.362;8.478;2023-04-15T02:38:03;-1.20;99.90
8527;DHT22;4301;48.362;8.478;2023-04-15T02:40:30;-1.20;99.90
8527;DHT22;4301;48.362;8.478;2023-04-15T02:42:57;-1.20;99.90
8527;DHT22;4301;48.362;8.478;2023-04-15T02:45:25;-1.20;99.90
8527;DHT22;4301;48.362;8.478;2023-04-15T02:47:52;-1.20;99.90
8527;DHT22;4301;48.362;8.478;2023-04-15T02:50:19;-1.20;99.90
8527;DHT22;4301;48.362;8.478;2023-04-15T02:52:49;-1.20;99.90
8527;DHT22;4301;48.362;8.478;2023-04-15T02:55:16;-1.20;99.90
8527;DHT22;4301;48.362;8.478;2023-04-15T02:57:43;-1.20;99.90
8527;DHT22;4301;48.362;8.478;2023-04-15T03:00:11;-1.20;99.90
8527;DHT22;4301;48.362;8.478;2023-04-15T03:02:39;-1.30;99.90
8527;DHT22;4301;48.362;8.478;2023-04-15T03:05:10;-1.30;99.90
8527;DHT22;4301;48.362;8.478;2023-04-15T03:07:38;-1.30;99.90
8527;DHT22;4301;48.362;8.478;2023-04-15T03:10:07;-1.30;99.90
8527;DHT22;4301;48.362;8.478;2023-04-15T03:12:34;-1.30;99.90
8527;DHT22;4301;48.362;8.478;2023-04-15T03:15:02;-1.40;99.90
8527;DHT22;4301;48.362;8.478;2023-04-15T03:17:29;-1.50;99.90
8527;DHT22;4301;48.362;8.478;2023-04-15T03:19:55;-1.40;99.90
8527;DHT22;4301;48.362;8.478;2023-04-15T03:22:22;-1.40;99.90
8527;DHT22;4301;48.362;8.478;2023-04-15T03:24:49;-1.30;99.90
8527;DHT22;4301;48.362;8.478;2023-04-15T03:27:18;-1.20;99.90
8527;DHT22;4301;48.362;8.478;2023-04-15T03:29:45;-1.30;99.90
8527;DHT22;4301;48.362;8.478;2023-04-15T03:32:11;-1.20;99.90
8527;DHT22;4301;48.362;8.478;2023-04-15T03:34:39;-1.20;99.90
8527;DHT22;4301;48.362;8.478;2023-04-15T03:37:06;-1.20;99.90
8527;DHT22;4301;48.362;8.478;2023-04-15T03:39:33;-1.20;99.90
8527;DHT22;4301;48.362;8.478;2023-04-15T03:42:00;-1.20;99.90
8527;DHT22;4301;48.362;8.478;2023-04-15T03:44:29;-1.20;99.90
8527;DHT22;4301;48.362;8.478;2023-04-15T03:46:57;-1.30;99.90
8527;DHT22;4301;48.362;8.478;2023-04-15T03:49:24;-1.30;99.90
8527;DHT22;4301;48.362;8.478;2023-04-15T03:51:51;-1.30;99.90
8527;DHT22;4301;48.362;8.478;2023-04-15T03:54:18;-1.30;99.90
8527;DHT22;4301;48.362;8.478;2023-04-15T03:56:45;-1.40;99.90
8527;DHT22;4301;48.362;8.478;2023-04-15T03:59:12;-1.40;99.90
8527;DHT22;4301;48.362;8.478;2023-04-15T04:01:40;-1.40;99.90
8527;DHT22;4301;48.362;8.478;2023-04-15T04:04:07;-1.40;99.90
8527;DHT22;4301;48.362;8.478;2023-04-15T04:06:34;-1.30;99.90
8527;DHT22;4301;48.362;8.478;2023-04-15T04:09:01;-1.30;99.90
8527;DHT22;4301;48.362;8.478;2023-04-15T04:11:28;-1.30;99.90
8527;DHT22;4301;48.362;8.478;2023-04-15T04:13:55;-1.20;99.90
8527;DHT22;4301;48.362;8.478;2023-04-15T04:16:22;-1.30;99.90
8527;DHT22;4301;48.362;8.478;2023-04-15T04:18:50;-1.40;99.90
8527;DHT22;4301;48.362;8.478;2023-04-15T04:21:17;-1.40;99.90
8527;DHT22;4301;48.362;8.478;2023-04-15T04:23:44;-1.40;99.90
8527;DHT22;4301;48.362;8.478;2023-04-15T04:26:11;-1.40;99.90
8527;DHT22;4301;48.362;8.478;2023-04-15T04:28:38;-1.40;99.90
8527;DHT22;4301;48.362;8.478;2023-04-15T04:31:05;-1.40;99.90
8527;DHT22;4301;48.362;8.478;2023-04-15T04:33:33;-1.40;99.90
8527;DHT22;4301;48.362;8.478;2023-04-15T04:36:01;-1.40;99.90
8527;DHT22;4301;48.362;8.478;2023-04-15T04:38:28;-1.30;99.90
8527;DHT22;4301;48.362;8.478;2023-04-15T04:40:55;-1.30;99.90
8527;DHT22;4301;48.362;8.478;2023-04-15T04:43:22;-1.20;99.90
8527;DHT22;4301;48.362;8.478;2023-04-15T04:45:49;-1.20;99.90
8527;DHT22;4301;48.362;8.478;2023-04-15T04:48:16;-1.20;99.90
8527;DHT22;4301;48.362;8.478;2023-04-15T04:50:44;-1.10;99.90
8527;DHT22;4301;48.362;8.478;2023-04-15T04:53:13;-1.10;99.90
8527;DHT22;4301;48.362;8.478;2023-04-15T04:55:40;-1.00;99.90
8527;DHT22;4301;48.362;8.478;2023-04-15T04:58:07;-1.00;99.90
8527;DHT22;4301;48.362;8.478;2023-04-15T05:00:34;-1.00;99.90
8527;DHT22;4301;48.362;8.478;2023-04-15T05:03:02;-0.80;99.90
8527;DHT22;4301;48.362;8.478;2023-04-15T05:05:29;-0.80;99.90
8527;DHT22;4301;48.362;8.478;2023-04-15T05:07:56;-0.70;99.90
8527;DHT22;4301;48.362;8.478;2023-04-15T05:10:24;-0.80;99.90
8527;DHT22;4301;48.362;8.478;2023-04-15T05:12:51;-0.70;99.90
8527;DHT22;4301;48.362;8.478;2023-04-15T05:15:18;-0.60;99.90
8527;DHT22;4301;48.362;8.478;2023-04-15T05:17:46;-0.50;99.90
8527;DHT22;4301;48.362;8.478;2023-04-15T05:20:12;-0.50;99.90
8527;DHT22;4301;48.362;8.478;2023-04-15T05:22:40;-0.40;99.90
8527;DHT22;4301;48.362;8.478;2023-04-15T05:25:07;-0.30;99.90
8527;DHT22;4301;48.362;8.478;2023-04-15T05:27:35;-0.20;99.90
8527;DHT22;4301;48.362;8.478;2023-04-15T05:30:03;0.00;99.90
8527;DHT22;4301;48.362;8.478;2023-04-15T05:32:30;0.10;99.90
8527;DHT22;4301;48.362;8.478;2023-04-15T05:34:57;0.20;99.90
8527;DHT22;4301;48.362;8.478;2023-04-15T05:37:24;0.20;99.90
8527;DHT22;4301;48.362;8.478;2023-04-15T05:39:50;0.30;99.90
8527;DHT22;4301;48.362;8.478;2023-04-15T05:42:17;0.40;99.90
8527;DHT22;4301;48.362;8.478;2023-04-15T05:44:46;0.60;99.90
8527;DHT22;4301;48.362;8.478;2023-04-15T05:47:13;0.60;99.90
8527;DHT22;4301;48.362;8.478;2023-04-15T05:49:40;0.50;99.90
8527;DHT22;4301;48.362;8.478;2023-04-15T05:52:07;0.60;99.90
8527;DHT22;4301;48.362;8.478;2023-04-15T05:54:34;0.80;99.90
8527;DHT22;4301;48.362;8.478;2023-04-15T05:57:01;0.90;99.90
8527;DHT22;4301;48.362;8.478;2023-04-15T05:59:28;1.10;99.90
8527;DHT22;4301;48.362;8.478;2023-04-15T06:01:56;1.30;99.90
8527;DHT22;4301;48.362;8.478;2023-04-15T06:04:23;1.50;99.90
8527;DHT22;4301;48.362;8.478;2023-04-15T06:06:50;1.70;99.90
8527;DHT22;4301;48.362;8.478;2023-04-15T06:09:17;1.80;99.90
8527;DHT22;4301;48.362;8.478;2023-04-15T06:11:45;1.90;99.00
8527;DHT22;4301;48.362;8.478;2023-04-15T06:14:11;2.10;99.90
8527;DHT22;4301;48.362;8.478;2023-04-15T06:16:38;2.30;94.80
8527;DHT22;4301;48.362;8.478;2023-04-15T06:19:07;2.50;90.30
8527;DHT22;4301;48.362;8.478;2023-04-15T06:21:33;2.70;89.40
8527;DHT22;4301;48.362;8.478;2023-04-15T06:24:00;2.80;80.00
8527;DHT22;4301;48.362;8.478;2023-04-15T06:26:28;2.90;79.80
8527;DHT22;4301;48.362;8.478;2023-04-15T06:28:55;3.20;90.80
8527;DHT22;4301;48.362;8.478;2023-04-15T06:31:22;3.20;30.10
8527;DHT22;4301;48.362;8.478;2023-04-15T06:33:49;3.40;29.60
8527;DHT22;4301;48.362;8.478;2023-04-15T06:36:18;3.50;13.60
8527;DHT22;4301;48.362;8.478;2023-04-15T06:38:45;3.70;11.40
8527;DHT22;4301;48.362;8.478;2023-04-15T06:41:12;3.90;1.00
8527;DHT22;4301;48.362;8.478;2023-04-15T06:43:39;4.10;1.00
8527;DHT22;4301;48.362;8.478;2023-04-15T06:46:06;4.40;1.00
8527;DHT22;4301;48.362;8.478;2023-04-15T06:48:33;4.50;1.00
8527;DHT22;4301;48.362;8.478;2023-04-15T06:51:00;4.60;1.00
8527;DHT22;4301;48.362;8.478;2023-04-15T06:53:29;4.70;1.00
8527;DHT22;4301;48.362;8.478;2023-04-15T06:55:56;4.70;1.00
8527;DHT22;4301;48.362;8.478;2023-04-15T06:58:23;4.80;1.00
8527;DHT22;4301;48.362;8.478;2023-04-15T07:00:51;4.90;1.00
8527;DHT22;4301;48.362;8.478;2023-04-15T07:03:18;5.10;1.00
8527;DHT22;4301;48.362;8.478;2023-04-15T07:05:45;5.30;1.00
8527;DHT22;4301;48.362;8.478;2023-04-15T07:08:12;5.40;1.00
8527;DHT22;4301;48.362;8.478;2023-04-15T07:10:40;5.60;1.00
8527;DHT22;4301;48.362;8.478;2023-04-15T07:13:07;5.80;1.00
8527;DHT22;4301;48.362;8.478;2023-04-15T07:15:34;6.00;1.00
8527;DHT22;4301;48.362;8.478;2023-04-15T07:18:01;6.20;1.00
8527;DHT22;4301;48.362;8.478;2023-04-15T07:20:28;6.30;99.90
8527;DHT22;4301;48.362;8.478;2023-04-15T07:22:55;6.40;99.90
8527;DHT22;4301;48.362;8.478;2023-04-15T07:25:22;6.70;99.90
8527;DHT22;4301;48.362;8.478;2023-04-15T07:27:51;7.00;99.90
8527;DHT22;4301;48.362;8.478;2023-04-15T07:30:18;7.20;99.90
8527;DHT22;4301;48.362;8.478;2023-04-15T07:32:45;7.60;99.90
8527;DHT22;4301;48.362;8.478;2023-04-15T07:35:12;7.90;62.40
8527;DHT22;4301;48.362;8.478;2023-04-15T07:37:39;8.30;99.90
8527;DHT22;4301;48.362;8.478;2023-04-15T07:40:08;8.60;1.00
8527;DHT22;4301;48.362;8.478;2023-04-15T07:42:36;8.60;99.90
8527;DHT22;4301;48.362;8.478;2023-04-15T07:45:05;8.70;1.00
8527;DHT22;4301;48.362;8.478;2023-04-15T07:47:32;8.70;99.90
8527;DHT22;4301;48.362;8.478;2023-04-15T07:49:59;8.90;1.00
8527;DHT22;4301;48.362;8.478;2023-04-15T07:52:26;9.30;1.00
8527;DHT22;4301;48.362;8.478;2023-04-15T07:54:53;9.50;99.90
8527;DHT22;4301;48.362;8.478;2023-04-15T07:57:20;9.80;99.90
8527;DHT22;4301;48.362;8.478;2023-04-15T07:59:47;10.10;99.90
8527;DHT22;4301;48.362;8.478;2023-04-15T08:02:15;10.20;99.90
8527;DHT22;4301;48.362;8.478;2023-04-15T08:04:42;10.50;1.00
8527;DHT22;4301;48.362;8.478;2023-04-15T08:07:09;10.90;1.00
8527;DHT22;4301;48.362;8.478;2023-04-15T08:09:36;11.30;1.00
8527;DHT22;4301;48.362;8.478;2023-04-15T08:12:03;11.60;1.00
8527;DHT22;4301;48.362;8.478;2023-04-15T08:14:33;11.90;1.00
8527;DHT22;4301;48.362;8.478;2023-04-15T08:17:00;11.90;99.90
8527;DHT22;4301;48.362;8.478;2023-04-15T08:19:29;11.80;99.90
8527;DHT22;4301;48.362;8.478;2023-04-15T08:21:56;11.80;99.90
8527;DHT22;4301;48.362;8.478;2023-04-15T08:24:23;12.00;99.90
8527;DHT22;4301;48.362;8.478;2023-04-15T08:26:51;12.30;99.90
8527;DHT22;4301;48.362;8.478;2023-04-15T08:29:18;12.20;99.90
8527;DHT22;4301;48.362;8.478;2023-04-15T08:31:46;12.50;99.90
8527;DHT22;4301;48.362;8.478;2023-04-15T08:34:13;12.90;99.90
8527;DHT22;4301;48.362;8.478;2023-04-15T08:36:41;13.00;99.90
8527;DHT22;4301;48.362;8.478;2023-04-15T08:39:08;13.30;99.90
8527;DHT22;4301;48.362;8.478;2023-04-15T08:41:39;13.40;99.90
8527;DHT22;4301;48.362;8.478;2023-04-15T08:44:08;13.70;99.90
8527;DHT22;4301;48.362;8.478;2023-04-15T08:46:36;14.10;99.90
8527;DHT22;4301;48.362;8.478;2023-04-15T08:49:04;14.30;99.90
8527;DHT22;4301;48.362;8.478;2023-04-15T08:51:34;14.20;99.90
8527;DHT22;4301;48.362;8.478;2023-04-15T08:54:03;14.70;94.50
8527;DHT22;4301;48.362;8.478;2023-04-15T08:56:32;14.30;96.60
8527;DHT22;4301;48.362;8.478;2023-04-15T08:58:59;14.20;90.70
8527;DHT22;4301;48.362;8.478;2023-04-15T09:01:26;14.40;79.70
8527;DHT22;4301;48.362;8.478;2023-04-15T09:03:53;14.50;37.60
8527;DHT22;4301;48.362;8.478;2023-04-15T09:06:21;15.10;43.90
8527;DHT22;4301;48.362;8.478;2023-04-15T09:08:48;15.20;26.40
8527;DHT22;4301;48.362;8.478;2023-04-15T09:11:18;15.40;27.30
8527;DHT22;4301;48.362;8.478;2023-04-15T09:13:45;16.10;32.00
8527;DHT22;4301;48.362;8.478;2023-04-15T09:16:12;16.00;15.30
8527;DHT22;4301;48.362;8.478;2023-04-15T09:18:40;16.50;16.00
8527;DHT22;4301;48.362;8.478;2023-04-15T09:21:09;16.50;4.60
8527;DHT22;4301;48.362;8.478;2023-04-15T09:23:37;16.60;2.80
8527;DHT22;4301;48.362;8.478;2023-04-15T09:26:05;16.90;4.70
8527;DHT22;4301;48.362;8.478;2023-04-15T09:28:40;17.00;1.00
8527;DHT22;4301;48.362;8.478;2023-04-15T09:31:08;17.20;1.00
8527;DHT22;4301;48.362;8.478;2023-04-15T09:33:53;18.00;1.10
8527;DHT22;4301;48.362;8.478;2023-04-15T09:36:21;18.40;1.00
8527;DHT22;4301;48.362;8.478;2023-04-15T09:38:54;18.50;1.00
8527;DHT22;4301;48.362;8.478;2023-04-15T09:41:22;18.40;1.00
8527;DHT22;4301;48.362;8.478;2023-04-15T09:43:50;17.20;1.00
8527;DHT22;4301;48.362;8.478;2023-04-15T09:46:17;17.20;1.00
8527;DHT22;4301;48.362;8.478;2023-04-15T09:48:45;18.30;1.00
8527;DHT22;4301;48.362;8.478;2023-04-15T09:51:12;18.50;1.00
8527;DHT22;4301;48.362;8.478;2023-04-15T09:53:39;18.80;1.00
8527;DHT22;4301;48.362;8.478;2023-04-15T09:56:06;18.30;1.00
8527;DHT22;4301;48.362;8.478;2023-04-15T09:58:35;17.60;1.00
8527;DHT22;4301;48.362;8.478;2023-04-15T10:01:05;16.80;1.00
8527;DHT22;4301;48.362;8.478;2023-04-15T10:03:33;16.40;1.00
8527;DHT22;4301;48.362;8.478;2023-04-15T10:06:01;15.90;1.00
8527;DHT22;4301;48.362;8.478;2023-04-15T10:08:31;15.50;1.00
8527;DHT22;4301;48.362;8.478;2023-04-15T10:11:01;15.20;1.00
8527;DHT22;4301;48.362;8.478;2023-04-15T10:13:30;14.90;1.00
8527;DHT22;4301;48.362;8.478;2023-04-15T10:16:06;14.60;1.00
8527;DHT22;4301;48.362;8.478;2023-04-15T10:18:39;14.50;1.00
8527;DHT22;4301;48.362;8.478;2023-04-15T10:21:07;14.40;1.00
8527;DHT22;4301;48.362;8.478;2023-04-15T10:23:34;14.50;1.00
8527;DHT22;4301;48.362;8.478;2023-04-15T10:26:03;14.50;1.00
8527;DHT22;4301;48.362;8.478;2023-04-15T10:28:31;14.50;1.00
8527;DHT22;4301;48.362;8.478;2023-04-15T10:30:58;15.10;1.00
8527;DHT22;4301;48.362;8.478;2023-04-15T10:33:27;16.20;1.00
8527;DHT22;4301;48.362;8.478;2023-04-15T10:35:55;16.60;1.00
8527;DHT22;4301;48.362;8.478;2023-04-15T10:38:32;16.20;1.00
8527;DHT22;4301;48.362;8.478;2023-04-15T10:41:16;15.90;1.00
8527;DHT22;4301;48.362;8.478;2023-04-15T10:43:51;15.50;1.00
8527;DHT22;4301;48.362;8.478;2023-04-15T10:46:20;15.10;1.00
8527;DHT22;4301;48.362;8.478;2023-04-15T10:48:50;15.20;1.00
8527;DHT22;4301;48.362;8.478;2023-04-15T10:51:27;15.10;1.00
8527;DHT22;4301;48.362;8.478;2023-04-15T10:53:58;15.40;1.00
8527;DHT22;4301;48.362;8.478;2023-04-15T10:56:27;15.70;1.00
8527;DHT22;4301;48.362;8.478;2023-04-15T10:58:55;16.10;1.00
8527;DHT22;4301;48.362;8.478;2023-04-15T11:01:49;16.30;1.00
8527;DHT22;4301;48.362;8.478;2023-04-15T11:04:52;16.30;1.00
8527;DHT22;4301;48.362;8.478;2023-04-15T11:07:46;16.50;1.00
8527;DHT22;4301;48.362;8.478;2023-04-15T11:13:27;15.40;1.00
8527;DHT22;4301;48.362;8.478;2023-04-15T11:16:00;14.90;1.00
8527;DHT22;4301;48.362;8.478;2023-04-15T11:18:29;14.70;1.00
8527;DHT22;4301;48.362;8.478;2023-04-15T11:20:59;14.50;1.00
8527;DHT22;4301;48.362;8.478;2023-04-15T11:23:29;14.10;1.00
8527;DHT22;4301;48.362;8.478;2023-04-15T11:25:56;14.00;1.00
8527;DHT22;4301;48.362;8.478;2023-04-15T11:28:25;13.90;1.00
8527;DHT22;4301;48.362;8.478;2023-04-15T11:30:52;13.90;1.00
8527;DHT22;4301;48.362;8.478;2023-04-15T11:33:20;14.00;1.00
8527;DHT22;4301;48.362;8.478;2023-04-15T11:35:48;13.80;1.00
8527;DHT22;4301;48.362;8.478;2023-04-15T11:38:17;13.80;1.00
8527;DHT22;4301;48.362;8.478;2023-04-15T11:40:44;13.80;1.00
8527;DHT22;4301;48.362;8.478;2023-04-15T11:43:12;13.90;1.00
8527;DHT22;4301;48.362;8.478;2023-04-15T11:45:49;14.00;1.00
8527;DHT22;4301;48.362;8.478;2023-04-15T11:48:17;13.50;1.00
8527;DHT22;4301;48.362;8.478;2023-04-15T11:50:44;13.10;1.00
8527;DHT22;4301;48.362;8.478;2023-04-15T11:53:12;13.10;1.00
8527;DHT22;4301;48.362;8.478;2023-04-15T11:55:45;13.10;1.00
8527;DHT22;4301;48.362;8.478;2023-04-15T11:58:14;13.10;1.00
8527;DHT22;4301;48.362;8.478;2023-04-15T12:00:46;12.90;1.00
8527;DHT22;4301;48.362;8.478;2023-04-15T12:03:17;12.70;1.00
8527;DHT22;4301;48.362;8.478;2023-04-15T12:06:11;12.70;1.00
8527;DHT22;4301;48.362;8.478;2023-04-15T12:11:37;12.40;1.00
8527;DHT22;4301;48.362;8.478;2023-04-15T12:14:07;12.40;1.00
8527;DHT22;4301;48.362;8.478;2023-04-15T12:16:35;12.40;1.00
8527;DHT22;4301;48.362;8.478;2023-04-15T12:19:05;12.70;1.00
8527;DHT22;4301;48.362;8.478;2023-04-15T12:21:35;12.90;1.00
8527;DHT22;4301;48.362;8.478;2023-04-15T12:24:04;12.90;1.00
8527;DHT22;4301;48.362;8.478;2023-04-15T12:26:35;12.90;1.00
8527;DHT22;4301;48.362;8.478;2023-04-15T12:29:04;13.00;1.00
8527;DHT22;4301;48.362;8.478;2023-04-15T12:31:31;13.20;1.00
8527;DHT22;4301;48.362;8.478;2023-04-15T12:33:59;13.60;1.00
8527;DHT22;4301;48.362;8.478;2023-04-15T12:36:26;14.10;1.00
8527;DHT22;4301;48.362;8.478;2023-04-15T12:38:54;14.30;1.00
8527;DHT22;4301;48.362;8.478;2023-04-15T12:41:21;14.50;1.00
8527;DHT22;4301;48.362;8.478;2023-04-15T12:43:50;14.50;1.00
8527;DHT22;4301;48.362;8.478;2023-04-15T12:46:17;15.10;1.00
8527;DHT22;4301;48.362;8.478;2023-04-15T12:48:44;15.20;1.00
8527;DHT22;4301;48.362;8.478;2023-04-15T12:51:12;15.50;1.00
8527;DHT22;4301;48.362;8.478;2023-04-15T12:53:39;15.60;1.00
8527;DHT22;4301;48.362;8.478;2023-04-15T12:56:06;15.60;1.00
8527;DHT22;4301;48.362;8.478;2023-04-15T12:58:33;15.70;1.00
8527;DHT22;4301;48.362;8.478;2023-04-15T13:01:02;15.90;1.00
8527;DHT22;4301;48.362;8.478;2023-04-15T13:03:29;15.90;1.00
8527;DHT22;4301;48.362;8.478;2023-04-15T13:05:56;15.50;1.00
8527;DHT22;4301;48.362;8.478;2023-04-15T13:08:23;15.40;1.00
8527;DHT22;4301;48.362;8.478;2023-04-15T13:10:50;15.20;1.00
8527;DHT22;4301;48.362;8.478;2023-04-15T13:13:17;14.90;1.00
8527;DHT22;4301;48.362;8.478;2023-04-15T13:15:44;14.80;1.00
8527;DHT22;4301;48.362;8.478;2023-04-15T13:18:12;14.60;1.00
8527;DHT22;4301;48.362;8.478;2023-04-15T13:20:40;14.80;1.00
8527;DHT22;4301;48.362;8.478;2023-04-15T13:23:07;14.70;1.00
8527;DHT22;4301;48.362;8.478;2023-04-15T13:25:34;14.70;1.00
8527;DHT22;4301;48.362;8.478;2023-04-15T13:28:01;14.50;1.00
8527;DHT22;4301;48.362;8.478;2023-04-15T13:30:28;14.70;1.00
8527;DHT22;4301;48.362;8.478;2023-04-15T13:32:55;14.60;1.00
8527;DHT22;4301;48.362;8.478;2023-04-15T13:35:24;14.60;1.00
8527;DHT22;4301;48.362;8.478;2023-04-15T13:37:51;14.50;1.00
8527;DHT22;4301;48.362;8.478;2023-04-15T13:40:19;14.70;1.00
8527;DHT22;4301;48.362;8.478;2023-04-15T13:42:46;14.80;1.00
8527;DHT22;4301;48.362;8.478;2023-04-15T13:45:13;15.10;1.00
8527;DHT22;4301;48.362;8.478;2023-04-15T13:47:41;15.00;1.00
8527;DHT22;4301;48.362;8.478;2023-04-15T13:50:08;15.00;1.00
8527;DHT22;4301;48.362;8.478;2023-04-15T13:52:37;14.70;1.00
8527;DHT22;4301;48.362;8.478;2023-04-15T13:55:05;14.60;1.00
8527;DHT22;4301;48.362;8.478;2023-04-15T13:57:32;14.80;1.00
8527;DHT22;4301;48.362;8.478;2023-04-15T13:59:59;14.30;1.00
8527;DHT22;4301;48.362;8.478;2023-04-15T14:02:25;14.50;1.00
8527;DHT22;4301;48.362;8.478;2023-04-15T14:04:52;14.80;1.00
8527;DHT22;4301;48.362;8.478;2023-04-15T14:07:19;14.80;1.00
8527;DHT22;4301;48.362;8.478;2023-04-15T14:09:48;14.80;1.00
8527;DHT22;4301;48.362;8.478;2023-04-15T14:12:15;14.90;1.00
8527;DHT22;4301;48.362;8.478;2023-04-15T14:14:41;14.60;1.00
8527;DHT22;4301;48.362;8.478;2023-04-15T14:17:08;14.40;1.00
8527;DHT22;4301;48.362;8.478;2023-04-15T14:19:35;14.30;1.00
8527;DHT22;4301;48.362;8.478;2023-04-15T14:22:02;14.30;1.00
8527;DHT22;4301;48.362;8.478;2023-04-15T14:24:29;14.20;1.00
8527;DHT22;4301;48.362;8.478;2023-04-15T14:26:58;14.10;1.00
8527;DHT22;4301;48.362;8.478;2023-04-15T14:29:26;14.20;1.00
8527;DHT22;4301;48.362;8.478;2023-04-15T14:31:53;14.10;1.00
8527;DHT22;4301;48.362;8.478;2023-04-15T14:34:22;14.20;1.00
8527;DHT22;4301;48.362;8.478;2023-04-15T14:36:50;14.00;1.00
8527;DHT22;4301;48.362;8.478;2023-04-15T14:39:17;14.10;1.00
8527;DHT22;4301;48.362;8.478;2023-04-15T14:41:44;14.20;1.00
8527;DHT22;4301;48.362;8.478;2023-04-15T14:44:12;14.40;1.00
8527;DHT22;4301;48.362;8.478;2023-04-15T14:46:40;14.30;1.00
8527;DHT22;4301;48.362;8.478;2023-04-15T14:49:07;14.40;1.00
8527;DHT22;4301;48.362;8.478;2023-04-15T14:51:34;14.00;1.00
8527;DHT22;4301;48.362;8.478;2023-04-15T14:54:01;14.00;1.00
8527;DHT22;4301;48.362;8.478;2023-04-15T14:56:28;14.20;1.00
8527;DHT22;4301;48.362;8.478;2023-04-15T14:58:55;13.90;1.00
8527;DHT22;4301;48.362;8.478;2023-04-15T15:01:23;13.60;1.00
8527;DHT22;4301;48.362;8.478;2023-04-15T15:03:50;13.60;1.00
8527;DHT22;4301;48.362;8.478;2023-04-15T15:06:19;13.50;1.00
8527;DHT22;4301;48.362;8.478;2023-04-15T15:08:46;13.50;1.00
8527;DHT22;4301;48.362;8.478;2023-04-15T15:11:12;13.30;1.00
8527;DHT22;4301;48.362;8.478;2023-04-15T15:13:39;13.10;1.00
8527;DHT22;4301;48.362;8.478;2023-04-15T15:16:06;13.00;1.00
8527;DHT22;4301;48.362;8.478;2023-04-15T15:18:36;12.90;1.00
8527;DHT22;4301;48.362;8.478;2023-04-15T15:21:03;12.90;1.00
8527;DHT22;4301;48.362;8.478;2023-04-15T15:23:30;12.80;1.00
8527;DHT22;4301;48.362;8.478;2023-04-15T15:25:57;12.90;1.00
8527;DHT22;4301;48.362;8.478;2023-04-15T15:28:24;12.90;1.00
8527;DHT22;4301;48.362;8.478;2023-04-15T15:30:51;12.70;1.00
8527;DHT22;4301;48.362;8.478;2023-04-15T15:33:18;12.50;1.00
8527;DHT22;4301;48.362;8.478;2023-04-15T15:35:46;12.20;1.00
8527;DHT22;4301;48.362;8.478;2023-04-15T15:38:13;12.20;1.00
8527;DHT22;4301;48.362;8.478;2023-04-15T15:40:41;12.20;1.00
8527;DHT22;4301;48.362;8.478;2023-04-15T15:43:08;12.10;1.00
8527;DHT22;4301;48.362;8.478;2023-04-15T15:45:35;12.00;1.00
8527;DHT22;4301;48.362;8.478;2023-04-15T15:48:02;11.80;1.00
8527;DHT22;4301;48.362;8.478;2023-04-15T15:50:29;11.80;1.00
8527;DHT22;4301;48.362;8.478;2023-04-15T15:52:57;11.60;1.00
8527;DHT22;4301;48.362;8.478;2023-04-15T15:55:24;11.40;1.00
8527;DHT22;4301;48.362;8.478;2023-04-15T15:57:51;11.30;1.00
8527;DHT22;4301;48.362;8.478;2023-04-15T16:00:18;11.20;2.20
8527;DHT22;4301;48.362;8.478;2023-04-15T16:02:45;11.20;1.00
8527;DHT22;4301;48.362;8.478;2023-04-15T16:05:12;11.10;11.80
8527;DHT22;4301;48.362;8.478;2023-04-15T16:07:40;11.00;16.40
8527;DHT22;4301;48.362;8.478;2023-04-15T16:10:09;11.00;23.20
8527;DHT22;4301;48.362;8.478;2023-04-15T16:12:37;10.90;48.80
8527;DHT22;4301;48.362;8.478;2023-04-15T16:15:04;10.80;81.90
8527;DHT22;4301;48.362;8.478;2023-04-15T16:17:32;10.70;98.10
8527;DHT22;4301;48.362;8.478;2023-04-15T16:19:59;10.60;99.90
8527;DHT22;4301;48.362;8.478;2023-04-15T16:22:30;10.40;99.90